بريدة, Saudi Arabia

05:45 PM AST on لبراêر 28, 2017 (GMT +0300)
Gassim | | Change Station

Elev 2133 ft 26.30 °N, 43.77 °E | Updated 45 minutes ago

صافية
صافية
79 °F
Feels Like 79 °F
N
13
ريح متغير ريح from ESE

هذا اليوم
High -- | Low -- °F
--% Chance of Precip.
Yesterday
High -- | Low -- °F
Precip. -- في
الضغط 30.04 في
وضوح الرؤية -9999.0 أميال
سحابات
نقطة الندى 45 °F
الرطوبة 30%
Rainfall 0.00 في
عمق الثلج Not available.
6:28 AM 6:04 PM
الهلال الأول, 5% visible
METAR OEGS 281400Z 11011KT CAVOK 26/07 Q1017
الضغط 30.04 في
وضوح الرؤية -9999.0 أميال
سحابات
نقطة الندى 45 °F
الرطوبة 30%
Rainfall 0.00 في
عمق الثلج Not available.
6:28 AM 6:04 PM
الهلال الأول, 5% visible
METAR OEGS 281400Z 11011KT CAVOK 26/07 Q1017

Get Your Daily Forecast Email!

Thanks for signing up!

Be on the lookout for a verification email in your inbox.

You'll start receiving the daily forecast at 8 AM.

×

10-Day Weather Forecast

No radar image for this location.
×

Almanac

علم الفلك

Feb. 28, 2017 Rise Set
Actual Time
Civil Twilight
Nautical Twilight
Astronomical Twilight
قمر
Length Of Visible Light
طول الیوم
Tomorrow will be .
, % of the Moon is Illuminated

Today's Extremes

Country Highs Country Lows

Community

WunderPhotos

Upload Photos

1,962,540 photos uploaded!

WunderBlog® & News

Nearby

جودة الهواء

  جودة الهواء AQ Index Pollutant
Not available.

عمق الثلج

Station Depth Elevation

Earthquake Activity

City Distance Mag. Time & Date
Minimum magnitude displayed is 2.5.

Coastal Water Temperatures

مكان درجات الحرارة

Stations

Nearby Weather Stations

Station Location الحرارة رياح باردة نقطة الندى الرطوبة ريح Precip. Elev تحديث Type